Latest Weather Observations for Mallacoota

IDV60801

Issued at 4:35 pm EST Wednesday 3 September 2014 (issued every 30 minutes, with the page automatically refreshed every 10 minutes)

About weather observations | Map of weather stations | Latest weather observations for VIC | Other Formats
Station Details ID: 084084 Name: MALLACOOTA Lat: -37.60 Lon: 149.73 Height: 22.0 m
Data from the previous 72 hours. | See also: Recent months at Mallacoota
Date/Time
EST
Temp
°C
App
Temp
°C
Dew
Point
Rel
Hum
%
Delta-T
°C
Wind Press
QNH
hPa
Press
MSL
hPa
Rain
since 9 am
mm
Dir
 
Spd
km/h
Gust
km/h
Spd
kts
Gust
kts
03/04:30pm 10.1 6.2 8.5 90 0.8 WSW 19 35 10 19 1016.5 - 8.2
03/04:00pm 10.3 6.4 8.6 89 0.8 WSW 19 35 10 19 1016.3 - 7.2
03/03:30pm 10.7 6.8 8.8 88 0.9 WSW 19 43 10 23 1016.3 - 6.6
03/03:00pm 10.6 6.4 8.4 86 1.1 SW 20 32 11 17 1016.2 1016.2 6.6
03/02:30pm 11.8 7.1 9.2 84 1.3 SW 24 37 13 20 1016.1 - 5.8
03/02:00pm 10.9 6.8 8.5 85 1.2 SSW 20 33 11 18 1016.3 - 5.8
03/01:30pm 10.6 5.2 8.2 85 1.2 S 26 54 14 29 1016.3 - 5.4
03/01:22pm 11.2 5.4 8.1 81 1.5 S 28 54 15 29 1016.5 - 5.0
03/01:00pm 13.1 8.3 8.8 75 2.2 SW 24 35 13 19 1016.3 - 4.8
03/12:30pm 11.5 6.7 8.9 84 1.3 SW 24 35 13 19 1016.8 - 4.8
03/12:00pm 10.9 5.1 8.1 83 1.4 SSW 28 43 15 23 1017.3 1017.3 4.8
03/11:30am 10.5 6.1 8.9 90 0.8 SW 22 37 12 20 1017.5 - 4.6
03/11:00am 10.0 4.7 8.4 90 0.8 SSW 26 39 14 21 1017.9 - 3.8
03/10:30am 10.2 4.9 8.5 89 0.8 SSW 26 48 14 26 1018.0 - 2.2
03/10:00am 11.2 5.2 6.9 75 2.0 SSW 28 50 15 27 1017.7 - 0.0
03/09:30am 12.0 5.0 6.9 71 2.4 SSW 33 54 18 29 1017.8 - 0.0
03/09:01am 11.8 4.7 6.5 70 2.5 SSW 33 52 18 28 1018.1 - 0.0
03/09:00am 11.7 4.2 6.4 70 2.5 SSW 35 52 19 28 1018.1 1018.1 16.6
03/08:30am 11.4 5.1 5.7 68 2.6 SSW 28 50 15 27 1018.1 - 16.6
03/08:06am 12.2 5.8 5.4 63 3.2 SSW 28 46 15 25 1018.0 - 16.6
03/08:00am 12.1 5.5 4.3 59 3.5 SSW 28 44 15 24 1018.0 - 16.6
03/07:30am 11.9 5.2 5.8 66 2.8 SSW 30 54 16 29 1017.6 - 16.6
03/07:14am 11.4 5.1 5.5 67 2.7 SSW 28 52 15 28 1017.7 - 16.6
03/07:00am 10.8 5.3 5.8 71 2.3 SW 24 39 13 21 1017.4 - 16.4
03/06:34am 12.0 4.5 4.5 60 3.4 SSW 33 54 18 29 1017.2 - 16.4
03/06:30am 12.1 4.7 5.0 62 3.3 SSW 33 50 18 27 1017.2 - 16.4
03/06:00am 12.0 4.5 4.7 61 3.3 SSW 33 56 18 30 1016.9 1016.9 16.4
03/05:30am 12.1 4.9 5.0 62 3.3 SSW 32 50 17 27 1016.7 - 16.4
03/05:05am 11.8 4.5 4.3 60 3.4 SSW 32 50 17 27 1016.5 - 16.4
03/05:00am 11.8 4.5 4.5 61 3.3 SSW 32 48 17 26 1016.5 - 16.4
03/04:34am 12.0 4.5 4.7 61 3.3 SSW 33 57 18 31 1016.2 - 16.4
03/04:30am 12.1 5.2 6.4 68 2.7 SSW 32 48 17 26 1016.2 - 16.4
03/04:00am 11.9 4.6 5.5 65 3.0 SSW 33 52 18 28 1016.0 - 16.4
03/03:33am 11.1 4.9 6.0 71 2.4 SSW 28 50 15 27 1015.9 - 16.4
03/03:30am 11.1 5.7 6.3 72 2.3 SSW 24 48 13 26 1016.0 - 16.4
03/03:00am 10.2 5.4 5.6 73 2.1 SW 20 35 11 19 1015.7 1015.7 16.4
03/02:30am 9.9 4.7 5.3 73 2.1 SW 22 35 12 19 1015.8 - 16.4
03/02:00am 9.4 4.0 6.3 81 1.4 SW 24 37 13 20 1016.3 - 16.4
03/01:30am 10.3 3.4 6.3 76 1.9 SSW 32 56 17 30 1016.4 - 15.8
03/01:00am 12.3 4.9 4.8 60 3.4 SSW 33 54 18 29 1016.1 - 15.6
03/12:38am 12.5 5.3 5.9 64 3.1 SSW 33 56 18 30 1015.9 - 15.6
03/12:30am 12.4 4.9 4.6 59 3.6 SSW 33 50 18 27 1016.0 - 15.6
03/12:00am 12.6 4.8 4.8 59 3.6 SSW 35 57 19 31 1016.0 1016.0 15.6
 
Date/Time
EST
Temp
°C
App
Temp
°C
Dew
Point
Rel
Hum
%
Delta-T
°C
Wind Press
QNH
hPa
Press
MSL
hPa
Rain
since 9 am
mm
Dir
 
Spd
km/h
Gust
km/h
Spd
kts
Gust
kts
02/11:30pm 12.5 4.2 4.2 57 3.8 SSW 37 61 20 33 1016.2 - 15.6
02/11:00pm 12.4 4.0 3.6 55 3.9 SSW 37 57 20 31 1016.3 - 15.6
02/10:33pm 12.4 5.4 4.1 57 3.7 SSW 30 59 16 32 1016.4 - 15.6
02/10:30pm 12.3 5.0 4.3 58 3.6 SSW 32 44 17 24 1016.4 - 15.6
02/10:00pm 12.8 4.7 3.5 53 4.2 SSW 35 57 19 31 1016.4 - 15.6
02/09:30pm 12.6 4.9 5.3 61 3.4 SSW 35 56 19 30 1016.4 - 15.6
02/09:00pm 12.7 5.2 4.4 57 3.8 SSW 33 56 18 30 1016.3 1016.3 15.6
02/08:30pm 12.6 5.2 4.8 59 3.6 SSW 33 52 18 28 1016.1 - 15.6
02/08:00pm 11.5 4.5 6.0 69 2.6 S 32 61 17 33 1015.8 - 15.6
02/07:42pm 12.4 4.6 6.7 68 2.7 SSW 37 74 20 40 1015.8 - 15.6
02/07:30pm 12.8 5.3 6.4 65 3.0 SSW 35 54 19 29 1015.4 - 15.6
02/07:00pm 12.8 4.8 5.9 63 3.3 S 37 59 20 32 1015.1 - 15.6
02/06:30pm 12.2 3.9 6.3 67 2.8 S 39 70 21 38 1014.8 - 15.6
02/06:00pm 12.7 4.7 5.6 62 3.3 SSW 37 61 20 33 1014.3 1014.3 15.6
02/05:30pm 12.5 3.2 5.2 61 3.4 SSW 43 67 23 36 1013.6 - 15.6
02/05:00pm 12.2 4.0 6.7 69 2.6 SSW 39 69 21 37 1012.9 - 15.6
02/04:30pm 11.6 2.5 9.7 88 1.0 S 48 72 26 39 1012.0 - 15.4
02/04:20pm 11.3 2.4 7.8 79 1.7 S 44 76 24 41 1012.0 - 14.8
02/04:00pm 11.7 4.4 8.7 82 1.5 SSW 37 57 20 31 1011.5 - 14.6
02/03:30pm 11.8 5.0 9.4 85 1.2 SSW 35 61 19 33 1011.1 - 14.6
02/03:09pm 11.2 5.1 9.6 90 0.8 S 32 50 17 27 1010.9 - 14.2
02/03:00pm 11.0 5.6 9.4 90 0.8 S 28 44 15 24 1011.0 1011.0 13.8
02/02:30pm 10.9 3.7 9.3 90 0.8 S 37 56 20 30 1010.8 - 13.0
02/02:01pm 10.6 4.2 9.5 93 0.6 SSW 33 52 18 28 1010.7 - 11.6
02/02:00pm 10.8 4.6 9.9 94 0.5 SSW 33 50 18 27 1010.7 - 11.6
02/01:47pm 10.3 4.8 9.1 92 0.6 SSW 28 48 15 26 1010.6 - 10.4
02/01:30pm 9.9 5.4 8.7 92 0.6 SW 22 37 12 20 1010.5 - 7.8
02/01:00pm 10.1 7.0 8.7 91 0.7 W 15 26 8 14 1010.5 - 3.8
02/12:30pm 10.2 6.3 8.6 90 0.8 W 19 35 10 19 1010.5 - 1.6
02/12:00pm 9.8 5.6 8.1 89 0.8 W 20 35 11 19 1010.8 1010.8 1.4
02/11:30am 10.8 7.0 8.9 88 0.9 WSW 19 33 10 18 1010.5 - 1.0
02/11:00am 10.7 6.3 9.0 89 0.8 SW 22 39 12 21 1010.8 - 0.8
02/10:30am 10.2 6.1 8.5 89 0.8 SW 20 33 11 18 1010.6 - 0.6
02/10:00am 10.5 6.4 8.8 89 0.8 WSW 20 35 11 19 1010.5 - 0.4
02/09:30am 10.5 6.7 8.9 90 0.8 SW 19 32 10 17 1010.4 - 0.4
02/09:00am 10.3 6.8 8.9 91 0.7 WSW 17 28 9 15 1010.1 1010.1 6.6
02/08:30am 10.4 6.5 8.7 89 0.8 SW 19 39 10 21 1009.9 - 5.8
02/08:00am 10.6 6.6 8.4 86 1.1 W 19 28 10 15 1009.5 - 5.4
02/07:30am 10.3 6.1 8.4 88 0.9 W 20 32 11 17 1009.3 - 5.4
02/07:00am 10.0 5.8 8.4 90 0.8 W 20 33 11 18 1009.0 - 5.4
02/06:30am 10.0 6.5 8.6 91 0.7 W 17 35 9 19 1009.0 - 5.4
02/06:00am 10.0 6.5 8.6 91 0.7 W 17 28 9 15 1008.8 1008.8 5.0
02/05:30am 10.0 6.8 8.6 91 0.7 W 15 26 8 14 1008.9 - 4.6
02/05:00am 10.1 7.0 8.7 91 0.7 W 15 26 8 14 1008.8 - 4.2
02/04:30am 10.0 7.6 8.6 91 0.7 W 11 19 6 10 1008.8 - 3.6
02/04:00am 10.1 7.7 8.7 91 0.7 W 11 17 6 9 1008.6 - 3.2
02/03:30am 10.1 7.3 8.7 91 0.7 WNW 13 22 7 12 1008.7 - 2.8
02/03:00am 10.1 7.3 8.7 91 0.7 W 13 26 7 14 1008.5 1008.5 2.6
02/02:30am 10.3 8.4 8.9 91 0.7 W 9 17 5 9 1008.9 - 2.6
02/02:00am 10.5 8.9 8.9 90 0.8 W 7 17 4 9 1009.0 - 2.4
02/01:30am 10.8 8.2 9.2 90 0.8 WSW 13 24 7 13 1009.2 - 1.8
02/01:00am 11.4 10.3 9.8 90 0.8 W 6 11 3 6 1009.6 - 1.2
02/12:30am 11.7 10.6 9.9 89 0.9 NW 6 7 3 4 1009.6 - 0.2
02/12:00am 11.7 10.6 9.9 89 0.9 W 6 9 3 5 1009.0 1009.0 0.2
 
Date/Time
EST
Temp
°C
App
Temp
°C
Dew
Point
Rel
Hum
%
Delta-T
°C
Wind Press
QNH
hPa
Press
MSL
hPa
Rain
since 9 am
mm
Dir
 
Spd
km/h
Gust
km/h
Spd
kts
Gust
kts
01/11:30pm 11.8 10.7 9.9 88 1.0 WSW 6 11 3 6 1009.2 - 0.0
01/11:00pm 11.8 10.1 9.9 88 1.0 W 9 13 5 7 1009.3 - 0.0
01/10:30pm 11.9 10.8 9.8 87 1.1 WSW 6 9 3 5 1009.4 - 0.0
01/10:00pm 12.2 10.5 9.8 85 1.2 W 9 15 5 8 1009.4 - 0.0
01/09:30pm 12.9 10.0 9.5 80 1.7 SW 15 24 8 13 1009.3 - 0.0
01/09:00pm 13.8 10.5 9.6 76 2.2 SW 17 33 9 18 1009.5 1009.5 0.0
01/08:30pm 14.1 9.9 9.9 76 2.2 SW 22 39 12 21 1009.4 - 0.0
01/08:00pm 14.8 9.9 10.0 73 2.5 SW 26 43 14 23 1008.8 - 0.0
01/07:45pm 15.5 10.1 9.6 68 3.1 SW 28 43 15 23 1008.2 - 0.0
01/07:30pm 15.9 13.9 10.0 68 3.1 W 11 19 6 10 1007.7 - 0.0
01/07:00pm 16.5 14.0 9.7 64 3.6 NNW 13 19 7 10 1006.8 - 0.0
01/06:30pm 16.6 13.7 9.8 64 3.6 NNW 15 20 8 11 1006.9 - 0.0
01/06:00pm 16.2 14.2 10.1 67 3.2 N 11 17 6 9 1006.6 1006.6 0.0
01/05:30pm 16.5 14.4 9.7 64 3.6 NNW 11 13 6 7 1006.5 - 0.0
01/05:00pm 15.6 14.4 10.2 70 2.8 NNW 7 9 4 5 1006.5 - 0.0
01/04:30pm 16.8 14.9 9.0 60 4.0 NNW 9 11 5 6 1006.7 - 0.0
01/04:00pm 17.4 15.8 10.1 62 3.9 N 9 13 5 7 1006.8 - 0.0
01/03:30pm 18.7 16.8 8.9 53 5.1 NNW 9 13 5 7 1007.0 - 0.0
01/03:00pm 19.6 17.9 9.8 53 5.2 NNW 9 13 5 7 1007.1 1007.1 0.0
01/02:30pm 20.3 19.1 10.4 53 5.4 NNW 7 9 4 5 1007.2 - 0.0
01/02:00pm 20.9 19.5 11.0 53 5.4 N 9 15 5 8 1007.5 - 0.0
01/01:30pm 20.6 18.4 9.5 49 5.9 N 11 15 6 8 1008.1 - 0.0
01/01:00pm 20.4 17.9 9.6 50 5.8 N 13 17 7 9 1008.5 - 0.0
01/12:30pm 20.5 18.2 10.6 53 5.4 NNE 13 17 7 9 1008.7 - 0.0
01/12:00pm 19.5 18.1 10.8 57 4.7 NNE 9 13 5 7 1009.3 1009.3 0.0
01/11:30am 18.3 16.0 9.1 55 4.8 N 11 17 6 9 1009.9 - 0.0
01/11:00am 17.0 14.5 8.2 56 4.5 N 11 19 6 10 1010.2 - 0.0
01/10:30am 17.8 14.9 8.1 53 5.0 N 13 19 7 10 1010.4 - 0.0
01/10:00am 16.4 12.7 7.9 57 4.3 N 17 22 9 12 1010.8 - 0.0
01/09:30am 14.0 11.3 7.3 64 3.3 N 11 15 6 8 1011.3 - 0.0
01/09:00am 13.5 10.6 6.6 63 3.3 N 11 19 6 10 1011.6 1011.6 0.2
01/08:30am 13.3 10.4 6.6 64 3.2 N 11 15 6 8 1011.8 - 0.2
01/08:00am 12.3 9.3 6.1 66 2.9 NNW 11 17 6 9 1012.2 - 0.0
01/07:30am 11.8 8.1 6.3 69 2.6 NNW 15 20 8 11 1012.1 - 0.0
01/07:00am 11.2 7.8 6.1 71 2.4 NNW 13 20 7 11 1012.0 - 0.0
01/06:30am 10.9 7.8 7.2 78 1.8 NNW 13 17 7 9 1012.0 - 0.0
01/06:00am 10.7 7.6 7.4 80 1.6 NW 13 20 7 11 1012.1 1012.1 0.0
01/05:30am 11.1 8.5 7.8 80 1.6 NNW 11 19 6 10 1012.0 - 0.0
01/05:00am 11.4 8.6 8.4 82 1.5 NNW 13 19 7 10 1011.9 - 0.0
01/04:30am 10.8 8.3 8.4 85 1.2 NNW 11 15 6 8 1011.9 - 0.0
01/04:00am 10.7 8.3 8.5 86 1.1 NNW 11 15 6 8 1012.1 - 0.0
01/03:30am 11.2 9.3 8.9 86 1.1 NNW 9 15 5 8 1012.2 - 0.0
01/03:00am 11.3 9.6 9.7 90 0.8 NNW 9 15 5 8 1012.6 1012.6 0.0
01/02:30am 10.8 9.0 9.6 92 0.6 N 9 13 5 7 1012.9 - 0.0
01/02:00am 10.8 9.0 9.6 92 0.6 NNW 9 13 5 7 1013.4 - 0.0
01/01:30am 11.1 9.0 9.9 92 0.6 NW 11 15 6 8 1013.7 - 0.0
01/01:00am 11.4 9.4 10.1 92 0.7 NNW 11 17 6 9 1014.0 - 0.0
01/12:30am 11.4 9.4 10.1 92 0.7 NNW 11 17 6 9 1014.3 - 0.0
01/12:00am 11.4 10.1 10.0 91 0.7 NNW 7 11 4 6 1014.6 1014.6 0.0
 
Date/Time
EST
Temp
°C
App
Temp
°C
Dew
Point
Rel
Hum
%
Delta-T
°C
Wind Press
QNH
hPa
Press
MSL
hPa
Rain
since 9 am
mm
Dir
 
Spd
km/h
Gust
km/h
Spd
kts
Gust
kts
31/11:30pm 12.0 10.5 10.6 91 0.7 N 9 13 5 7 1014.7 - 0.0
31/11:00pm 12.3 10.1 10.7 90 0.8 N 13 20 7 11 1015.1 - 0.0
31/10:30pm 12.5 10.4 11.1 91 0.7 N 13 19 7 10 1015.3 - 0.0
31/10:00pm 12.5 10.4 11.1 91 0.7 N 13 19 7 10 1015.7 - 0.0
31/09:30pm 12.7 10.2 11.1 90 0.8 N 15 24 8 13 1016.0 - 0.0
31/09:00pm 12.3 10.5 10.7 90 0.8 NNW 11 17 6 9 1016.3 1016.3 0.0
31/08:30pm 12.6 10.8 10.7 88 1.0 NNW 11 13 6 7 1016.3 - 0.0
31/08:00pm 12.6 11.1 10.5 87 1.1 NNW 9 13 5 7 1016.2 - 0.0
31/07:30pm 12.8 11.0 10.7 87 1.1 N 11 15 6 8 1016.3 - 0.0
31/07:00pm 12.9 11.6 11.1 89 0.9 NNW 9 11 5 6 1016.3 - 0.0
31/06:30pm 12.3 11.2 10.5 89 0.9 NNW 7 11 4 6 1016.3 - 0.0
31/06:00pm 12.9 13.1 10.4 85 1.3 CALM 0 6 0 3 1016.1 1016.1 0.0
31/05:30pm 14.7 13.6 12.0 84 1.5 NNE 9 13 5 7 1015.9 - 0.0
31/05:00pm 15.6 14.2 12.2 80 1.9 ENE 11 17 6 9 1015.7 - 0.0

Other Formats:

Comma delimited format used in spreadsheet applications
http://www.bom.gov.au/fwo/IDV60801/IDV60801.94935.axf

JavaScript Object Notation format (JSON) in row-major order
http://www.bom.gov.au/fwo/IDV60801/IDV60801.94935.json